Time;durP1;ratioP1;P1;durP2;ratioP2;P2;SDS_P1;SDS_P2;PMS_P1;PMS_P2;Temp;Humidity;BMP_temperature;BMP_pressure;BME280_temperature;BME280_humidity;BME280_pressure;Samples;Min_cycle;Max_cycle;Signal;HPM_P1;HPM_P2
2022/06/02 00:00:19;;;;;;;0.30;0.30;;;;;;;13.42;90.72;99650.91;4825201;29;20514;-86
2022/06/02 00:03:08;;;;;;;0.40;0.40;;;;;;;13.40;90.91;99651.16;4823895;29;20042;-86
2022/06/02 00:06:08;;;;;;;0.40;0.40;;;;;;;13.43;90.69;99658.78;4824339;29;20370;-85
2022/06/02 00:08:55;;;;;;;0.30;0.30;;;;;;;13.41;90.44;99658.19;4808227;29;20514;-85
2022/06/02 00:11:44;;;;;;;0.30;0.30;;;;;;;13.39;90.31;99648.66;4824366;29;20067;-86
2022/06/02 00:14:19;;;;;;;0.30;0.30;;;;;;;13.36;90.28;99655.41;4824389;29;20058;-86
2022/06/02 00:16:53;;;;;;;0.30;0.30;;;;;;;13.34;90.20;99660.28;4823804;29;20119;-85
2022/06/02 00:19:29;;;;;;;0.30;0.30;;;;;;;13.37;90.13;99662.50;4824166;29;20061;-86
2022/06/02 00:22:03;;;;;;;0.30;0.30;;;;;;;13.45;89.86;99669.38;4822668;29;20090;-84
2022/06/02 00:24:51;;;;;;;0.30;0.30;;;;;;;13.56;89.49;99665.75;4823914;29;20058;-85
2022/06/02 00:27:34;;;;;;;0.30;0.30;;;;;;;13.66;89.13;99671.34;4823546;29;20062;-84
2022/06/02 00:30:17;;;;;;;0.30;0.30;;;;;;;13.78;88.54;99670.44;4832322;29;20485;-85
2022/06/02 00:33:21;;;;;;;0.30;0.30;;;;;;;13.84;88.08;99667.53;4810146;29;20054;-86
2022/06/02 00:35:58;;;;;;;0.30;0.30;;;;;;;13.86;87.83;99661.84;4809178;29;20062;-85
2022/06/02 00:38:37;;;;;;;0.38;0.38;;;;;;;13.84;87.67;99656.66;4808200;29;20053;-85
2022/06/02 00:41:20;;;;;;;0.30;0.30;;;;;;;13.76;87.82;99646.25;4808151;29;20051;-85
2022/06/02 00:43:50;;;;;;;0.40;0.40;;;;;;;13.77;87.96;99655.19;4823921;29;20065;-85
2022/06/02 00:46:35;;;;;;;0.40;0.40;;;;;;;13.68;88.30;99645.88;4824197;29;20131;-83
2022/06/02 00:49:19;;;;;;;0.40;0.40;;;;;;;13.53;88.71;99650.00;4824281;29;20107;-85
2022/06/02 00:52:08;;;;;;;0.40;0.40;;;;;;;13.46;89.00;99646.63;4792736;29;20054;-84
2022/06/02 00:58:14;;;;;;;0.32;0.32;;;;;;;13.41;89.50;99655.50;4807251;29;20054;-85
2022/06/02 01:00:49;;;;;;;0.32;0.32;;;;;;;13.47;89.17;99655.56;4823507;29;20537;-85
2022/06/02 01:03:20;;;;;;;0.40;0.40;;;;;;;13.54;88.95;99657.03;4792678;29;20081;-84
2022/06/02 01:06:04;;;;;;;0.30;0.30;;;;;;;13.66;88.60;99659.66;4807198;29;20074;-84
2022/06/02 01:08:45;;;;;;;0.40;0.40;;;;;;;13.74;88.11;99664.66;4808990;29;20082;-85
2022/06/02 01:11:18;;;;;;;0.35;0.35;;;;;;;13.81;87.48;99664.50;4809765;29;20090;-85
2022/06/02 01:14:02;;;;;;;0.30;0.30;;;;;;;13.93;87.06;99670.66;4825296;29;20074;-85
2022/06/02 01:17:06;;;;;;;0.30;0.30;;;;;;;13.99;86.70;99658.78;4829613;29;20052;-85
2022/06/02 01:19:46;;;;;;;0.40;0.40;;;;;;;13.96;86.47;99653.03;4847753;29;20043;-84
2022/06/02 01:22:13;;;;;;;0.30;0.30;;;;;;;13.97;86.55;99649.25;4816912;29;20046;-83
2022/06/02 01:25:11;;;;;;;0.30;0.30;;;;;;;14.01;86.52;99656.63;4831397;29;20043;-85
2022/06/02 01:28:03;;;;;;;0.40;0.40;;;;;;;14.05;86.18;99646.94;4831421;29;20161;-86
2022/06/02 01:30:52;;;;;;;0.30;0.30;;;;;;;14.11;86.01;99653.25;4847149;29;20034;-85
2022/06/02 01:33:45;;;;;;;0.40;0.40;;;;;;;14.17;85.65;99654.94;4811941;29;20085;-86
2022/06/02 01:36:46;;;;;;;0.30;0.30;;;;;;;14.22;85.23;99657.72;4807460;29;20058;-85
2022/06/02 01:39:37;;;;;;;0.30;0.30;;;;;;;14.22;85.38;99656.91;4824849;29;20054;-85
2022/06/02 01:42:10;;;;;;;0.40;0.40;;;;;;;14.21;85.32;99656.09;4823642;29;20055;-85
2022/06/02 01:44:44;;;;;;;0.30;0.30;;;;;;;14.20;85.24;99659.84;4824427;29;20086;-85
2022/06/02 01:47:24;;;;;;;0.40;0.40;;;;;;;14.21;85.13;99645.22;4808956;29;20050;-85
2022/06/02 01:50:12;;;;;;;0.30;0.30;;;;;;;14.23;84.96;99650.38;4808536;29;20050;-85
2022/06/02 01:52:55;;;;;;;0.40;0.40;;;;;;;14.26;84.97;99637.13;4809576;29;20463;-85
2022/06/02 01:55:34;;;;;;;0.30;0.30;;;;;;;14.28;84.72;99636.88;4827296;29;20064;-84
2022/06/02 01:58:22;;;;;;;0.40;0.40;;;;;;;14.32;84.46;99641.53;4831646;29;20034;-84
2022/06/02 02:01:02;;;;;;;0.40;0.40;;;;;;;14.32;84.35;99641.53;4846939;29;20035;-85
2022/06/02 02:03:55;;;;;;;0.30;0.30;;;;;;;14.38;84.09;99636.16;4831413;29;20376;-85
2022/06/02 02:06:25;;;;;;;0.30;0.30;;;;;;;14.35;84.10;99632.06;4826106;29;20058;-85
2022/06/02 02:09:03;;;;;;;0.30;0.30;;;;;;;14.34;84.08;99630.44;4822937;29;20407;-86
2022/06/02 02:11:42;;;;;;;0.35;0.35;;;;;;;14.26;84.36;99631.72;4806104;29;20467;-87
2022/06/02 02:14:42;;;;;;;0.30;0.30;;;;;;;14.17;84.71;99622.34;4816978;29;20057;-86
2022/06/02 02:17:28;;;;;;;0.40;0.40;;;;;;;14.05;85.14;99627.09;4821364;29;20062;-86
2022/06/02 02:20:08;;;;;;;0.40;0.40;;;;;;;13.99;85.68;99625.41;4820294;29;20092;-86
2022/06/02 02:23:02;;;;;;;0.30;0.30;;;;;;;13.92;85.84;99622.03;4818114;29;20153;-86
2022/06/02 02:25:46;;;;;;;0.40;0.40;;;;;;;13.90;85.97;99633.16;4828169;29;20054;-83
2022/06/02 02:28:25;;;;;;;0.40;0.40;;;;;;;14.02;85.73;99635.75;4806294;29;20606;-83
2022/06/02 02:31:14;;;;;;;0.40;0.40;;;;;;;14.15;84.93;99635.34;4806110;29;20126;-85
2022/06/02 02:34:16;;;;;;;0.40;0.40;;;;;;;14.28;84.28;99635.00;4822283;29;20510;-85
2022/06/02 02:37:03;;;;;;;0.40;0.40;;;;;;;14.25;83.81;99618.38;4791322;29;20526;-83
2022/06/02 02:39:38;;;;;;;0.40;0.40;;;;;;;14.17;84.10;99632.41;4822493;29;20095;-81
2022/06/02 02:42:18;;;;;;;0.40;0.40;;;;;;;14.08;84.05;99621.19;4806613;29;20054;-86
2022/06/02 02:45:13;;;;;;;0.30;0.30;;;;;;;14.09;84.33;99620.09;4819009;29;20141;-86
2022/06/02 02:48:02;;;;;;;0.40;0.40;;;;;;;14.08;84.29;99607.63;4822132;29;20054;-85
2022/06/02 02:50:54;;;;;;;0.30;0.30;;;;;;;14.20;84.13;99599.31;4822783;29;20107;-84
2022/06/02 02:53:30;;;;;;;0.30;0.30;;;;;;;14.26;83.79;99603.75;4796215;29;20509;-85
2022/06/02 02:56:17;;;;;;;0.40;0.40;;;;;;;14.36;83.51;99603.03;4795519;29;20113;-85
2022/06/02 02:59:01;;;;;;;0.30;0.30;;;;;;;14.43;83.26;99590.91;4811733;29;20126;-85
2022/06/02 03:01:50;;;;;;;0.30;0.30;;;;;;;14.47;83.00;99594.72;4815780;29;20375;-85
2022/06/02 03:04:27;;;;;;;0.40;0.40;;;;;;;14.52;82.69;99597.50;4824745;29;20145;-84
2022/06/02 03:06:57;;;;;;;0.30;0.30;;;;;;;14.57;82.34;99599.50;4794881;29;20509;-84
2022/06/02 03:09:34;;;;;;;0.30;0.30;;;;;;;14.67;82.16;99604.22;4804994;29;20066;-84
2022/06/02 03:12:20;;;;;;;0.38;0.38;;;;;;;14.72;81.76;99602.34;4793494;29;20061;-84
2022/06/02 03:15:09;;;;;;;0.38;0.38;;;;;;;14.83;81.23;99607.88;4808055;29;20062;-85
2022/06/02 03:17:43;;;;;;;0.40;0.40;;;;;;;14.81;80.62;99607.31;4824245;29;20066;-85
2022/06/02 03:20:42;;;;;;;0.30;0.30;;;;;;;14.90;80.30;99608.50;4822778;29;20451;-84
2022/06/02 03:23:44;;;;;;;;;;;;;;;14.98;79.97;99609.91;4824686;29;20065;-84
2022/06/02 03:26:23;;;;;;;0.30;0.30;;;;;;;14.98;79.11;99609.91;4732184;30;20426;-83
2022/06/02 03:28:50;;;;;;;0.40;0.40;;;;;;;14.93;79.07;99616.13;4703527;30;20654;-83
2022/06/02 03:31:23;;;;;;;0.30;0.30;;;;;;;14.89;79.47;99617.75;4730545;30;20059;-82
2022/06/02 03:34:07;;;;;;;0.40;0.40;;;;;;;14.87;79.61;99615.28;4711036;30;20484;-85
2022/06/02 03:36:47;;;;;;;0.32;0.32;;;;;;;14.88;79.92;99616.09;4721344;30;20584;-83
2022/06/02 03:39:26;;;;;;;0.40;0.40;;;;;;;14.98;79.38;99620.78;4714584;30;20442;-86
2022/06/02 03:42:29;;;;;;;0.40;0.40;;;;;;;15.11;78.95;99629.31;4714878;30;20057;-85
2022/06/02 03:45:48;;;;;;;0.40;0.40;;;;;;;15.18;78.84;99618.25;4699383;30;20060;-84
2022/06/02 03:48:50;;;;;;;0.40;0.40;;;;;;;15.15;78.23;99616.06;4406086;30;9999887;-84
2022/06/02 03:51:25;;;;;;;0.30;0.30;;;;;;;15.16;78.32;99621.22;4745961;30;20079;-90
2022/06/02 03:54:18;;;;;;;0.40;0.40;;;;;;;15.27;78.17;99624.84;4718141;30;20058;-84
2022/06/02 03:57:27;;;;;;;0.40;0.40;;;;;;;15.27;77.91;99619.41;4731749;30;20473;-84
2022/06/02 04:00:11;;;;;;;0.40;0.40;;;;;;;15.27;77.88;99627.56;4772918;29;20140;-85
2022/06/02 04:02:51;;;;;;;0.40;0.40;;;;;;;15.30;77.90;99628.94;4820991;29;20159;-84
2022/06/02 04:05:37;;;;;;;0.40;0.40;;;;;;;15.43;77.92;99630.41;4849132;24;20125;-83
2022/06/02 04:08:23;;;;;;;0.40;0.40;;;;;;;15.48;77.65;99612.22;4856115;29;20061;-84
2022/06/02 04:11:04;;;;;;;0.40;0.40;;;;;;;15.56;77.43;99619.06;4850985;29;20114;-86
2022/06/02 04:13:57;;;;;;;0.30;0.30;;;;;;;15.60;77.08;99637.31;4884895;24;20065;-88
2022/06/02 04:16:39;;;;;;;0.38;0.38;;;;;;;15.65;77.12;99641.13;4876302;29;20053;-87
2022/06/02 04:22:35;;;;;;;0.35;0.35;;;;;;;15.77;77.24;99639.06;4859474;29;20125;-86
2022/06/02 04:25:17;;;;;;;0.40;0.40;;;;;;;15.89;76.73;99630.72;4867701;29;20145;-86
2022/06/02 04:27:56;;;;;;;0.40;0.40;;;;;;;15.83;76.47;99621.72;4851512;29;20080;-86
2022/06/02 04:30:44;;;;;;;0.30;0.30;;;;;;;15.90;76.61;99632.34;4865145;29;20088;-85
2022/06/02 04:33:27;;;;;;;0.30;0.30;;;;;;;15.99;76.76;99638.94;4865718;29;20054;-86
2022/06/02 04:36:00;;;;;;;0.40;0.40;;;;;;;16.15;76.41;99642.53;4860144;29;20080;-85
2022/06/02 04:38:33;;;;;;;0.40;0.40;;;;;;;16.35;75.73;99639.88;4844369;29;20052;-85
2022/06/02 04:41:28;;;;;;;0.40;0.40;;;;;;;16.47;75.36;99640.47;4845071;29;20061;-87
2022/06/02 04:44:38;;;;;;;0.40;0.40;;;;;;;16.59;75.31;99639.44;4860521;29;20057;-85
2022/06/02 04:47:13;;;;;;;0.40;0.40;;;;;;;16.73;75.09;99632.38;4861254;29;20151;-86
2022/06/02 04:49:40;;;;;;;0.40;0.40;;;;;;;16.78;74.32;99632.41;4844527;29;20061;-86
2022/06/02 04:52:22;;;;;;;0.32;0.32;;;;;;;16.81;73.55;99631.88;4850633;29;20056;-85
2022/06/02 04:54:52;;;;;;;0.35;0.35;;;;;;;16.78;73.63;99629.69;4875036;29;20053;-86
2022/06/02 04:57:53;;;;;;;0.40;0.40;;;;;;;16.99;74.52;99625.09;4892837;29;20160;-86
2022/06/02 05:00:40;;;;;;;0.40;0.40;;;;;;;17.05;72.98;99632.16;4864917;29;20080;-86
2022/06/02 05:03:19;;;;;;;0.30;0.30;;;;;;;17.10;73.51;99620.44;4872101;29;20041;-86
2022/06/02 05:05:59;;;;;;;0.40;0.40;;;;;;;17.25;72.55;99625.09;4849865;29;20061;-86
2022/06/02 05:09:04;;;;;;;0.40;0.40;;;;;;;17.19;72.36;99618.81;4860645;29;20118;-86
2022/06/02 05:11:37;;;;;;;0.30;0.30;;;;;;;17.16;72.39;99622.06;4818521;29;20056;-83
2022/06/02 05:14:16;;;;;;;0.40;0.40;;;;;;;17.17;72.23;99623.72;4859020;29;20096;-87
2022/06/02 05:16:55;;;;;;;0.40;0.40;;;;;;;17.23;72.52;99619.91;4858114;29;20053;-83
2022/06/02 05:19:54;;;;;;;0.40;0.40;;;;;;;17.49;72.18;99617.94;4938613;23;20513;-90
2022/06/02 05:22:37;;;;;;;0.30;0.30;;;;;;;17.55;72.40;99618.78;4834780;29;20053;-86
2022/06/02 05:25:48;;;;;;;0.40;0.40;;;;;;;17.61;71.29;99622.31;4837779;29;20580;-86
2022/06/02 05:28:44;;;;;;;0.40;0.40;;;;;;;17.70;71.77;99610.56;4755751;30;20159;-87
2022/06/02 05:31:26;;;;;;;0.40;0.40;;;;;;;17.64;71.00;99616.31;4736754;30;20156;-83
2022/06/02 05:34:10;;;;;;;0.40;0.40;;;;;;;17.74;71.38;99611.63;4759537;30;20094;-85
2022/06/02 05:37:05;;;;;;;0.40;0.40;;;;;;;17.85;70.56;99617.94;4730840;30;20055;-85
2022/06/02 05:39:34;;;;;;;0.30;0.30;;;;;;;17.94;70.71;99610.78;4745544;30;20420;-86
2022/06/02 05:42:14;;;;;;;0.30;0.30;;;;;;;18.05;70.85;99617.00;4744945;30;20156;-85
2022/06/02 05:45:11;;;;;;;0.30;0.30;;;;;;;17.94;69.95;99604.50;4726946;30;20064;-86
2022/06/02 05:47:51;;;;;;;0.30;0.30;;;;;;;17.97;70.60;99612.94;4716397;30;20083;-85
2022/06/02 05:50:44;;;;;;;0.30;0.30;;;;;;;18.09;70.51;99604.44;4744973;30;20060;-87
2022/06/02 05:53:31;;;;;;;0.40;0.40;;;;;;;18.23;70.05;99614.75;4730847;30;20238;-88
2022/06/02 05:56:07;;;;;;;0.30;0.30;;;;;;;18.29;69.99;99613.66;4746060;30;20048;-88
2022/06/02 05:59:06;;;;;;;0.40;0.40;;;;;;;18.35;69.76;99604.34;4716876;30;20056;-85
2022/06/02 06:01:52;;;;;;;0.40;0.40;;;;;;;18.28;70.25;99610.13;4733082;30;20063;-86
2022/06/02 06:04:38;;;;;;;0.30;0.30;;;;;;;18.42;70.43;99600.19;4757102;29;20062;-84
2022/06/02 06:07:49;;;;;;;0.40;0.40;;;;;;;18.54;69.06;99602.59;4818048;29;20066;-84
2022/06/02 06:10:28;;;;;;;0.40;0.40;;;;;;;18.64;68.54;99601.72;4826769;29;20070;-86
2022/06/02 06:13:17;;;;;;;0.35;0.35;;;;;;;18.75;68.17;99597.00;4799716;29;20066;-86
2022/06/02 06:15:44;;;;;;;0.35;0.35;;;;;;;18.83;68.02;99593.69;4810441;29;20513;-86
2022/06/02 06:18:48;;;;;;;0.30;0.30;;;;;;;18.91;68.26;99590.31;4805227;29;20081;-84
2022/06/02 06:21:34;;;;;;;0.30;0.30;;;;;;;18.99;67.94;99600.69;4818723;29;20182;-84
2022/06/02 06:24:22;;;;;;;0.40;0.40;;;;;;;19.26;67.85;99593.88;4825521;29;20058;-86
2022/06/02 06:26:58;;;;;;;0.30;0.30;;;;;;;19.48;67.46;99594.22;4821251;29;20169;-85
2022/06/02 06:29:55;;;;;;;0.30;0.30;;;;;;;19.54;67.11;99597.69;4822805;29;20050;-86
2022/06/02 06:32:33;;;;;;;0.30;0.30;;;;;;;19.44;66.50;99595.06;4816379;29;20149;-84
2022/06/02 06:35:14;;;;;;;0.30;0.30;;;;;;;19.27;66.55;99587.31;4823590;29;20057;-84
2022/06/02 06:37:55;;;;;;;0.30;0.30;;;;;;;19.48;66.50;99593.41;4811604;29;20107;-84
2022/06/02 06:40:45;;;;;;;0.30;0.30;;;;;;;19.72;65.71;99587.97;4816722;29;20055;-86
2022/06/02 06:43:24;;;;;;;0.30;0.30;;;;;;;19.78;65.46;99591.47;4806511;29;20054;-88
2022/06/02 06:46:18;;;;;;;0.30;0.30;;;;;;;19.78;65.13;99588.75;4825712;29;20749;-85
2022/06/02 06:49:03;;;;;;;0.30;0.30;;;;;;;19.85;66.17;99568.09;4824673;29;20057;-88
2022/06/02 06:51:58;;;;;;;0.30;0.30;;;;;;;20.09;64.72;99591.91;4832653;29;20058;-87
2022/06/02 06:54:44;;;;;;;;;;;;;;;20.07;64.24;99585.91;4813893;29;20145;-85
2022/06/02 06:57:18;;;;;;;0.30;0.30;;;;;;;20.12;64.27;99581.19;4820532;29;19967;-86
2022/06/02 06:59:47;;;;;;;0.20;0.20;;;;;;;20.24;63.54;99599.13;4795347;29;20054;-88
2022/06/02 07:02:17;;;;;;;0.30;0.30;;;;;;;20.00;64.00;99597.22;4809528;29;20046;-89
2022/06/02 07:05:01;;;;;;;0.30;0.30;;;;;;;19.84;64.68;99599.31;4816929;29;20054;-88
2022/06/02 07:07:44;;;;;;;0.30;0.30;;;;;;;19.89;64.39;99604.75;4817120;29;20161;-87
2022/06/02 07:10:43;;;;;;;0.30;0.30;;;;;;;20.26;64.21;99616.09;4809421;29;20153;-87
2022/06/02 07:13:44;;;;;;;0.30;0.30;;;;;;;20.45;63.65;99600.47;4822141;29;20054;-87
2022/06/02 07:16:19;;;;;;;0.30;0.30;;;;;;;20.46;63.42;99607.59;4822322;29;20058;-88
2022/06/02 07:19:22;;;;;;;0.30;0.30;;;;;;;20.65;62.80;99613.13;4803877;29;20058;-87
2022/06/02 07:21:59;;;;;;;0.30;0.30;;;;;;;20.86;62.78;99618.28;4808942;29;20062;-87
2022/06/02 07:24:47;;;;;;;0.30;0.30;;;;;;;20.81;61.99;99621.94;4805875;29;20149;-86
2022/06/02 07:35:25;;;;;;;0.30;0.30;;;;;;;20.77;61.96;99626.38;4788794;29;20078;-86
2022/06/02 07:38:02;;;;;;;0.30;0.30;;;;;;;21.02;61.90;99625.19;4766236;29;20224;-86
2022/06/02 07:41:07;;;;;;;0.30;0.30;;;;;;;21.33;60.95;99620.00;4788283;29;20511;-87
2022/06/02 07:43:46;;;;;;;0.30;0.30;;;;;;;21.28;60.36;99628.31;4803639;29;20483;-86
2022/06/02 07:46:25;;;;;;;0.30;0.30;;;;;;;21.02;61.24;99624.38;4774921;29;20055;-87
2022/06/02 07:49:01;;;;;;;0.30;0.30;;;;;;;20.96;61.44;99626.38;4789952;29;20462;-87
2022/06/02 07:51:49;;;;;;;0.40;0.40;;;;;;;21.11;61.04;99611.59;4804074;29;20166;-87
2022/06/02 07:54:43;;;;;;;0.40;0.40;;;;;;;21.56;60.58;99611.94;4804107;29;20107;-87
2022/06/02 07:57:17;;;;;;;0.40;0.40;;;;;;;21.84;58.70;99599.06;4804029;29;20111;-87
2022/06/02 07:59:55;;;;;;;0.30;0.30;;;;;;;22.04;58.03;99608.81;4803540;29;20082;-88
2022/06/02 08:02:32;;;;;;;0.32;0.32;;;;;;;22.16;57.24;99616.56;4837579;29;20058;-87
2022/06/02 08:05:23;;;;;;;0.40;0.40;;;;;;;22.41;57.04;99624.31;4825988;29;20046;-87
2022/06/02 08:07:53;;;;;;;0.40;0.40;;;;;;;22.33;57.46;99614.00;4825970;29;20085;-87
2022/06/02 08:10:30;;;;;;;0.40;0.40;;;;;;;22.37;56.92;99614.22;4827223;29;20085;-87
2022/06/02 08:13:26;;;;;;;0.40;0.40;;;;;;;22.75;57.08;99616.69;4842667;29;20463;-87
2022/06/02 08:16:08;;;;;;;0.40;0.40;;;;;;;23.02;55.86;99613.84;4811221;29;20088;-88
2022/06/02 08:19:10;;;;;;;0.40;0.40;;;;;;;23.29;55.74;99607.38;4826779;29;20487;-87
2022/06/02 08:21:39;;;;;;;0.40;0.40;;;;;;;23.41;55.41;99609.56;4826552;29;20144;-88
2022/06/02 08:24:09;;;;;;;0.40;0.40;;;;;;;23.73;54.56;99613.97;4830922;29;20136;-88
2022/06/02 08:27:17;;;;;;;0.40;0.40;;;;;;;23.73;54.42;99615.94;4849756;29;20062;-87
2022/06/02 08:30:06;;;;;;;0.40;0.40;;;;;;;24.02;53.12;99612.63;4825870;29;20050;-87
2022/06/02 08:32:55;;;;;;;0.40;0.40;;;;;;;24.14;53.44;99620.31;4814710;29;20202;-87
2022/06/02 08:35:34;;;;;;;0.40;0.40;;;;;;;24.33;52.89;99612.56;4842455;29;20049;-87
2022/06/02 08:51:28;;;;;;;0.40;0.40;;;;;;;25.92;49.04;99610.97;5082802;23;20061;-87
2022/06/02 08:54:33;;;;;;;0.40;0.40;;;;;;;25.92;48.94;99610.97;4857612;29;20080;-86
2022/06/02 08:57:15;;;;;;;0.40;0.40;;;;;;;26.36;48.33;99608.00;4881063;29;20143;-88
2022/06/02 09:00:09;;;;;;;0.35;0.35;;;;;;;26.76;47.65;99610.31;4880054;29;20033;-87
2022/06/02 09:02:54;;;;;;;0.40;0.40;;;;;;;27.21;46.80;99598.53;4867349;29;20049;-88
2022/06/02 09:05:49;;;;;;;0.40;0.40;;;;;;;27.36;46.35;99606.22;4861880;29;20065;-87
2022/06/02 09:08:22;;;;;;;0.20;0.20;;;;;;;26.10;47.71;99603.41;4844202;29;20056;-89
2022/06/02 09:11:28;;;;;;;0.20;0.20;;;;;;;25.43;49.85;99599.44;4860271;29;20068;-88
2022/06/02 09:14:14;;;;;;;0.20;0.20;;;;;;;26.23;48.73;99598.81;4860117;29;20074;-88
2022/06/02 09:16:58;;;;;;;0.50;0.50;;;;;;;27.00;46.81;99598.56;4859388;29;20060;-88
2022/06/02 09:19:52;;;;;;;0.50;0.50;;;;;;;27.73;45.15;99581.34;4858509;29;20531;-87
2022/06/02 09:22:33;;;;;;;0.50;0.50;;;;;;;28.19;44.26;99593.16;4843648;29;20508;-87
2022/06/02 09:25:38;;;;;;;0.40;0.40;;;;;;;28.31;43.29;99597.88;4854922;29;20551;-85
2022/06/02 09:28:18;;;;;;;0.30;0.30;;;;;;;27.20;46.14;99589.44;4845168;29;20058;-86
2022/06/02 09:34:28;;;;;;;0.47;0.47;;;;;;;28.72;42.64;99588.44;5944465;23;20103;-87
2022/06/02 09:37:15;;;;;;;0.50;0.50;;;;;;;29.10;41.59;99591.91;4492342;29;10002083;-86
2022/06/02 09:39:59;;;;;;;0.40;0.40;;;;;;;29.34;41.10;99586.22;4796125;29;20081;-87
2022/06/02 09:43:00;;;;;;;0.40;0.40;;;;;;;29.03;41.48;99583.34;4838985;29;20044;-86
2022/06/02 09:45:49;;;;;;;0.45;0.45;;;;;;;29.35;40.66;99581.47;4808059;29;20053;-88
2022/06/02 09:48:57;;;;;;;0.40;0.40;;;;;;;28.76;40.89;99577.41;4788003;29;20044;-88
2022/06/02 09:51:39;;;;;;;0.50;0.50;;;;;;;28.77;40.94;99573.50;4787006;29;20055;-88
2022/06/02 09:54:43;;;;;;;0.30;0.30;;;;;;;29.02;40.66;99568.66;4801889;29;20045;-87
2022/06/02 10:01:01;;;;;;;0.30;0.30;;;;;;;29.27;40.54;99555.47;4769844;30;20597;-90
2022/06/02 10:03:46;;;;;;;0.40;0.40;;;;;;;29.43;40.46;99552.69;4776918;30;20148;-89
2022/06/02 10:10:14;;;;;;;0.40;0.40;;;;;;;30.45;38.25;99560.31;4793026;30;20143;-87
2022/06/02 10:12:58;;;;;;;0.50;0.50;;;;;;;30.90;37.16;99550.53;4780900;30;20124;-88
2022/06/02 10:15:48;;;;;;;0.40;0.40;;;;;;;31.37;36.67;99534.66;4794750;30;20108;-89
2022/06/02 10:18:25;;;;;;;0.40;0.40;;;;;;;31.82;35.52;99545.00;5098208;23;20121;-89
2022/06/02 10:21:13;;;;;;;0.40;0.40;;;;;;;31.95;35.09;99542.84;4871062;29;20088;-91
2022/06/02 10:23:57;;;;;;;0.40;0.40;;;;;;;31.21;36.18;99551.50;4886752;29;20053;-88
2022/06/02 10:26:39;;;;;;;0.40;0.40;;;;;;;31.66;35.69;99549.94;4870324;29;20046;-88
2022/06/02 10:29:43;;;;;;;0.40;0.40;;;;;;;31.54;36.19;99559.28;4901251;29;20060;-89
2022/06/02 10:32:39;;;;;;;0.32;0.32;;;;;;;32.04;35.24;99537.00;4869149;29;20067;-89
2022/06/02 10:35:25;;;;;;;0.40;0.40;;;;;;;32.48;33.67;99536.41;4882045;29;20215;-87
2022/06/02 10:38:18;;;;;;;0.40;0.40;;;;;;;32.40;33.77;99538.31;4861333;29;20592;-88
2022/06/02 10:41:00;;;;;;;0.40;0.40;;;;;;;32.42;33.79;99537.94;4859632;29;20476;-88
2022/06/02 10:44:06;;;;;;;0.40;0.40;;;;;;;32.61;33.82;99543.38;4847168;29;20057;-88
2022/06/02 10:47:10;;;;;;;0.40;0.40;;;;;;;32.97;33.06;99543.81;4845061;29;20053;-88
2022/06/02 10:49:59;;;;;;;0.40;0.40;;;;;;;32.89;32.09;99544.91;4861819;29;20136;-88
2022/06/02 10:52:44;;;;;;;0.40;0.40;;;;;;;32.11;33.87;99546.28;4862943;29;20156;-88
2022/06/02 10:55:45;;;;;;;0.40;0.40;;;;;;;32.04;34.38;99548.19;4863500;29;20552;-88
2022/06/02 10:58:31;;;;;;;0.20;0.20;;;;;;;32.07;33.63;99536.25;4861811;29;20106;-88
2022/06/02 11:01:28;;;;;;;0.40;0.40;;;;;;;32.07;34.53;99548.22;4862527;29;20469;-88
2022/06/02 11:04:13;;;;;;;0.40;0.40;;;;;;;31.95;33.45;99535.31;4862101;29;20148;-88
2022/06/02 11:06:59;;;;;;;0.40;0.40;;;;;;;31.64;34.43;99541.13;4863989;29;20477;-89
2022/06/02 11:09:48;;;;;;;0.40;0.40;;;;;;;31.82;34.21;99531.06;4815935;29;20061;-90
2022/06/02 11:32:01;;;;;;;0.40;0.40;;;;;;;33.46;30.77;99537.94;5012141;24;20065;-89
2022/06/02 11:34:43;;;;;;;0.30;0.30;;;;;;;31.36;34.06;99530.28;4833796;29;20062;-89
2022/06/02 11:37:42;;;;;;;0.35;0.35;;;;;;;32.36;33.19;99532.69;4841609;29;20042;-87
2022/06/02 11:41:03;;;;;;;0.20;0.20;;;;;;;33.67;31.13;99534.53;4846410;29;20061;-87
2022/06/02 11:43:56;;;;;;;0.30;0.30;;;;;;;33.23;31.03;99531.72;4825248;29;20046;-88
2022/06/02 11:47:03;;;;;;;0.20;0.20;;;;;;;32.94;31.69;99525.00;4851566;29;20152;-89
2022/06/02 11:50:08;;;;;;;0.10;0.10;;;;;;;30.90;34.08;99533.03;4845968;29;20060;-88
2022/06/02 11:53:03;;;;;;;0.10;0.10;;;;;;;29.91;36.15;99541.59;4853230;29;20295;-87
2022/06/02 11:55:49;;;;;;;0.30;0.30;;;;;;;29.73;35.95;99533.63;4838906;29;20121;-88
2022/06/02 11:58:25;;;;;;;0.20;0.20;;;;;;;28.96;37.66;99525.59;4841282;29;20054;-86
2022/06/02 12:01:01;;;;;;;0.30;0.30;;;;;;;29.83;36.71;99525.88;4841597;29;20106;-87
2022/06/02 12:03:58;;;;;;;0.30;0.30;;;;;;;31.14;34.04;99521.50;4841646;29;20069;-86
2022/06/02 12:07:05;;;;;;;0.10;0.10;;;;;;;30.82;35.22;99518.16;4819670;29;20054;-86
2022/06/02 12:09:58;;;;;;;0.20;0.20;;;;;;;30.51;34.96;99522.69;4808807;29;20444;-91
2022/06/02 12:12:41;;;;;;;0.30;0.30;;;;;;;31.04;34.44;99522.13;4817769;29;20050;-86
2022/06/02 12:15:19;;;;;;;0.30;0.30;;;;;;;31.06;34.65;99520.56;4820571;29;20059;-89
2022/06/02 12:18:31;;;;;;;0.30;0.30;;;;;;;31.00;34.05;99512.91;4837067;29;20054;-88
2022/06/02 12:20:58;;;;;;;0.30;0.30;;;;;;;31.51;33.19;99505.06;4787558;30;20086;-89
2022/06/02 12:23:53;;;;;;;0.30;0.30;;;;;;;32.10;31.36;99513.16;4784199;29;20067;-89
2022/06/02 12:26:48;;;;;;;0.30;0.30;;;;;;;32.59;31.68;99509.47;4784975;30;20523;-88
2022/06/02 12:29:17;;;;;;;0.20;0.20;;;;;;;31.71;33.28;99507.78;4770293;30;20085;-90
2022/06/02 12:32:03;;;;;;;0.20;0.20;;;;;;;30.73;35.47;99509.97;4769549;30;20150;-89
2022/06/02 12:35:04;;;;;;;0.20;0.20;;;;;;;30.35;36.12;99505.22;4777659;30;20071;-88
2022/06/02 12:38:18;;;;;;;0.20;0.20;;;;;;;29.78;36.62;99504.72;4773897;30;20073;-88
2022/06/02 12:40:54;;;;;;;0.20;0.20;;;;;;;28.95;38.27;99519.25;4769091;30;20085;-90
2022/06/02 12:43:42;;;;;;;0.20;0.20;;;;;;;28.65;38.55;99504.91;4788112;29;20146;-90
2022/06/02 12:46:21;;;;;;;0.20;0.20;;;;;;;28.95;37.93;99513.69;4794788;29;20089;-90
2022/06/02 12:48:54;;;;;;;0.20;0.20;;;;;;;29.15;37.93;99505.50;4779115;29;20661;-86
2022/06/02 12:51:38;;;;;;;0.20;0.20;;;;;;;29.07;38.19;99507.31;4782347;29;20050;-86
2022/06/02 12:54:17;;;;;;;0.20;0.20;;;;;;;28.28;40.01;99495.88;4770039;29;20283;-93
2022/06/02 12:57:15;;;;;;;0.20;0.20;;;;;;;28.49;39.82;99495.75;4809939;29;20431;-89
2022/06/02 13:00:03;;;;;;;0.20;0.20;;;;;;;28.21;39.90;99498.47;4802135;29;20059;-88
2022/06/02 13:02:36;;;;;;;0.20;0.20;;;;;;;27.74;40.83;99493.41;4820068;29;20089;-88
2022/06/02 13:05:23;;;;;;;0.20;0.20;;;;;;;28.04;40.71;99488.44;4834345;29;20065;-88
2022/06/02 13:08:18;;;;;;;0.20;0.20;;;;;;;28.39;39.67;99488.69;4819412;29;20788;-86
2022/06/02 13:11:23;;;;;;;0.20;0.20;;;;;;;28.18;40.24;99488.03;4806064;29;20080;-89
2022/06/02 13:14:09;;;;;;;;;;;;;;;27.78;40.78;99495.16;4812661;29;20054;-86
2022/06/02 13:17:04;;;;;;;0.20;0.20;;;;;;;27.75;40.14;99482.00;4822430;29;19980;-93
2022/06/02 13:19:55;;;;;;;0.20;0.20;;;;;;;27.55;40.57;99469.88;4833707;29;20062;-90
2022/06/02 13:22:35;;;;;;;0.20;0.20;;;;;;;27.62;40.50;99466.50;4823575;29;20054;-88
2022/06/02 13:26:01;;;;;;;0.20;0.20;;;;;;;28.19;40.10;99476.59;4833191;29;20054;-86
2022/06/02 13:28:46;;;;;;;0.20;0.20;;;;;;;28.21;40.12;99467.94;4844228;29;20126;-89
2022/06/02 13:31:38;;;;;;;0.20;0.20;;;;;;;28.50;39.90;99459.28;4828664;29;20082;-89
2022/06/02 13:34:57;;;;;;;0.20;0.20;;;;;;;28.85;38.76;99464.22;4840525;29;20054;-88
2022/06/02 13:37:56;;;;;;;0.30;0.30;;;;;;;29.09;38.62;99452.19;4804743;29;20443;-89
2022/06/02 13:41:01;;;;;;;0.20;0.20;;;;;;;29.39;38.60;99455.28;4820736;29;20054;-89
2022/06/02 13:43:48;;;;;;;0.20;0.20;;;;;;;29.88;37.42;99448.53;4814903;29;20070;-88
2022/06/02 14:15:35;;;;;;;0.20;0.20;;;;;;;29.15;37.83;99419.38;5017970;23;10001801;-88
2022/06/02 14:18:24;;;;;;;0.20;0.20;;;;;;;29.07;38.40;99409.25;4813204;29;20582;-87
2022/06/02 14:25:05;;;;;;;0.20;0.20;;;;;;;28.58;38.64;99392.88;5605247;23;20082;-87
2022/06/02 14:27:51;;;;;;;0.20;0.20;;;;;;;28.65;39.26;99409.72;4846294;29;20125;-88
2022/06/02 14:30:24;;;;;;;0.20;0.20;;;;;;;28.85;39.10;99405.88;4832048;29;20046;-88
2022/06/02 14:33:28;;;;;;;0.20;0.20;;;;;;;28.48;39.15;99410.84;4820913;29;20047;-87
2022/06/02 14:36:37;;;;;;;0.20;0.20;;;;;;;28.32;39.54;99408.00;4793330;29;20059;-88